Time;durP1;ratioP1;P1;durP2;ratioP2;P2;SDS_P1;SDS_P2;PMS_P1;PMS_P2;Temp;Humidity;BMP_temperature;BMP_pressure;BME280_temperature;BME280_humidity;BME280_pressure;Samples;Min_cycle;Max_cycle;Signal;HPM_P1;HPM_P2
2023/10/12 00:01:14;;;;;;;5.47;3.80;;;;;;;;;;5095927;28;20529;-58
2023/10/12 00:03:41;;;;;;;5.30;3.70;;;;;;;;;;5095810;28;20442;-58
2023/10/12 00:06:08;;;;;;;9.33;4.40;;;;;;;;;;5095655;28;20446;-58
2023/10/12 00:08:37;;;;;;;9.20;3.90;;;;;;;;;;5095475;28;20830;-58
2023/10/12 00:11:06;;;;;;;6.30;3.23;;;;;;;;;;5095750;28;20474;-58
2023/10/12 00:13:37;;;;;;;10.30;4.00;;;;;;;;;;5095722;28;20457;-58
2023/10/12 00:16:06;;;;;;;7.33;4.70;;;;;;;;;;5095355;28;20993;-58
2023/10/12 00:18:35;;;;;;;4.60;4.13;;;;;;;;;;5095505;28;20535;-58
2023/10/12 00:21:14;;;;;;;9.23;3.90;;;;;;;;;;5095388;28;20460;-59
2023/10/12 00:23:44;;;;;;;5.77;3.80;;;;;;;;;;5095602;28;20450;-58
2023/10/12 00:26:13;;;;;;;5.67;3.63;;;;;;;;;;5095439;28;20449;-58
2023/10/12 00:28:44;;;;;;;7.83;4.43;;;;;;;;;;5095361;28;20445;-58
2023/10/12 00:31:17;;;;;;;7.60;3.40;;;;;;;;;;5095343;28;20812;-58
2023/10/12 00:33:44;;;;;;;6.37;3.70;;;;;;;;;;5095134;28;20996;-58
2023/10/12 00:36:21;;;;;;;7.13;4.03;;;;;;;;;;5095236;28;20482;-58
2023/10/12 00:38:52;;;;;;;8.03;4.10;;;;;;;;;;5095053;28;20941;-59
2023/10/12 00:41:19;;;;;;;5.90;3.50;;;;;;;;;;5095228;28;20446;-58
2023/10/12 00:43:53;;;;;;;6.90;3.93;;;;;;;;;;5095026;28;20451;-58
2023/10/12 00:46:33;;;;;;;8.47;3.50;;;;;;;;;;5094822;28;20443;-58
2023/10/12 00:49:17;;;;;;;7.33;3.50;;;;;;;;;;5093971;28;20442;-58
2023/10/12 00:51:49;;;;;;;7.37;3.50;;;;;;;;;;5094889;28;20478;-59
2023/10/12 00:54:25;;;;;;;6.43;4.20;;;;;;;;;;5094648;28;20487;-58
2023/10/12 00:56:53;;;;;;;8.07;3.40;;;;;;;;;;5094782;28;20945;-58
2023/10/12 00:59:22;;;;;;;6.33;3.83;;;;;;;;;;5094822;28;20465;-59
2023/10/12 01:01:49;;;;;;;8.33;4.63;;;;;;;;;;5094656;28;20450;-58
2023/10/12 01:04:16;;;;;;;6.40;3.60;;;;;;;;;;5094627;28;20797;-58
2023/10/12 01:06:47;;;;;;;9.80;3.70;;;;;;;;;;5094333;28;20530;-58
2023/10/12 01:09:19;;;;;;;5.90;4.03;;;;;;;;;;5094449;28;20482;-58
2023/10/12 01:11:58;;;;;;;6.07;3.60;;;;;;;;;;5094562;28;20508;-58
2023/10/12 01:14:27;;;;;;;6.63;3.90;;;;;;;;;;5094440;28;20442;-58
2023/10/12 01:16:58;;;;;;;7.37;4.80;;;;;;;;;;5094339;28;20843;-58
2023/10/12 01:19:30;;;;;;;6.57;3.77;;;;;;;;;;5094267;28;20442;-58
2023/10/12 01:22:07;;;;;;;6.90;3.70;;;;;;;;;;5094457;28;20442;-58
2023/10/12 01:24:35;;;;;;;6.87;3.83;;;;;;;;;;5094307;28;20438;-58
2023/10/12 01:27:02;;;;;;;7.57;3.93;;;;;;;;;;5094184;28;20451;-58
2023/10/12 01:29:31;;;;;;;6.17;3.13;;;;;;;;;;5094121;28;20531;-58
2023/10/12 01:34:51;;;;;;;8.80;4.40;;;;;;;;;;5094042;28;20484;-58
2023/10/12 01:37:22;;;;;;;10.60;3.60;;;;;;;;;;5094024;28;20445;-58
2023/10/12 01:39:56;;;;;;;6.40;3.63;;;;;;;;;;5093949;28;20449;-58
2023/10/12 01:42:26;;;;;;;7.17;3.70;;;;;;;;;;5093838;28;20848;-58
2023/10/12 01:44:53;;;;;;;5.33;3.40;;;;;;;;;;5093968;28;20850;-58
2023/10/12 01:47:20;;;;;;;4.43;3.20;;;;;;;;;;5093882;28;20853;-58
2023/10/12 01:49:49;;;;;;;7.10;3.43;;;;;;;;;;5093778;28;20533;-58
2023/10/12 01:52:16;;;;;;;5.67;3.30;;;;;;;;;;5093480;28;20445;-58
2023/10/12 01:54:48;;;;;;;7.10;4.23;;;;;;;;;;5093543;28;20471;-58
2023/10/12 01:57:26;;;;;;;10.53;4.17;;;;;;;;;;5093491;28;20453;-58
2023/10/12 01:59:54;;;;;;;7.33;3.80;;;;;;;;;;5093579;28;20492;-58
2023/10/12 02:02:21;;;;;;;5.93;3.83;;;;;;;;;;5093461;28;20519;-58
2023/10/12 02:04:48;;;;;;;7.87;3.83;;;;;;;;;;5093653;28;20446;-57
2023/10/12 02:07:15;;;;;;;6.80;3.00;;;;;;;;;;5093214;28;20470;-58
2023/10/12 02:09:44;;;;;;;7.10;3.70;;;;;;;;;;5093367;28;20443;-58
2023/10/12 02:12:12;;;;;;;4.50;3.50;;;;;;;;;;5093473;28;20529;-58
2023/10/12 02:14:40;;;;;;;5.67;3.70;;;;;;;;;;5093311;28;20447;-57
2023/10/12 02:17:08;;;;;;;5.77;3.37;;;;;;;;;;5093322;28;20484;-58
2023/10/12 02:19:41;;;;;;;7.93;4.00;;;;;;;;;;5093223;28;20454;-58
2023/10/12 02:22:18;;;;;;;8.03;4.43;;;;;;;;;;5093124;28;20447;-58
2023/10/12 02:24:50;;;;;;;9.00;3.67;;;;;;;;;;5093350;28;20447;-58
2023/10/12 02:27:19;;;;;;;4.33;3.47;;;;;;;;;;5093312;28;20447;-58
2023/10/12 02:29:49;;;;;;;5.97;3.70;;;;;;;;;;5093345;28;20478;-58
2023/10/12 02:32:20;;;;;;;3.70;3.40;;;;;;;;;;5093109;28;20447;-58
2023/10/12 02:34:53;;;;;;;4.97;3.47;;;;;;;;;;5093181;28;20461;-58
2023/10/12 02:37:21;;;;;;;5.20;3.90;;;;;;;;;;5093189;28;20447;-58
2023/10/12 02:39:48;;;;;;;3.47;3.20;;;;;;;;;;5093035;28;20443;-58
2023/10/12 02:42:22;;;;;;;6.70;4.10;;;;;;;;;;5092982;28;20446;-58
2023/10/12 02:47:51;;;;;;;3.93;2.83;;;;;;;;;;5050497;28;20432;-58
2023/10/12 02:50:27;;;;;;;7.33;3.87;;;;;;;;;;5050414;28;20776;-58
2023/10/12 02:52:54;;;;;;;4.10;3.70;;;;;;;;;;5071908;28;20483;-58
2023/10/12 02:55:33;;;;;;;5.77;3.40;;;;;;;;;;5092687;28;20478;-58
2023/10/12 02:58:06;;;;;;;4.23;3.83;;;;;;;;;;5092971;28;20465;-58
2023/10/12 03:00:43;;;;;;;7.57;3.97;;;;;;;;;;5092906;28;20444;-58
2023/10/12 03:03:21;;;;;;;5.03;4.40;;;;;;;;;;5092780;28;20517;-58
2023/10/12 03:05:48;;;;;;;6.93;4.07;;;;;;;;;;5092707;28;20532;-58
2023/10/12 03:08:16;;;;;;;6.27;3.20;;;;;;;;;;5092512;28;20470;-58
2023/10/12 03:11:00;;;;;;;7.00;4.00;;;;;;;;;;5093592;28;20839;-58
2023/10/12 03:13:34;;;;;;;5.67;3.83;;;;;;;;;;5096792;28;20467;-58
2023/10/12 03:16:08;;;;;;;7.93;4.43;;;;;;;;;;5096610;28;20478;-58
2023/10/12 03:18:35;;;;;;;6.30;3.30;;;;;;;;;;5096863;28;20449;-58
2023/10/12 03:21:04;;;;;;;7.50;5.00;;;;;;;;;;5096655;28;20469;-58
2023/10/12 03:23:33;;;;;;;5.70;3.43;;;;;;;;;;5096298;28;20529;-58
2023/10/12 03:26:04;;;;;;;9.50;3.73;;;;;;;;;;5096313;28;20447;-58
2023/10/12 03:28:36;;;;;;;10.33;4.30;;;;;;;;;;5096327;28;20470;-58
2023/10/12 03:31:15;;;;;;;7.50;3.77;;;;;;;;;;5096424;28;20908;-58
2023/10/12 03:33:46;;;;;;;7.87;3.93;;;;;;;;;;5096325;28;20442;-57
2023/10/12 03:36:22;;;;;;;7.20;3.93;;;;;;;;;;5096347;28;20501;-58
2023/10/12 03:39:13;;;;;;;9.10;4.17;;;;;;;;;;5096188;28;20536;-58
2023/10/12 03:41:55;;;;;;;9.47;4.30;;;;;;;;;;5096014;28;20515;-58
2023/10/12 03:44:33;;;;;;;9.70;3.90;;;;;;;;;;5096255;28;20454;-57
2023/10/12 03:47:04;;;;;;;11.20;4.40;;;;;;;;;;5096252;28;20438;-57
2023/10/12 03:49:33;;;;;;;10.43;4.20;;;;;;;;;;5096005;28;20450;-58
2023/10/12 03:52:03;;;;;;;10.87;4.40;;;;;;;;;;5096156;28;20526;-58
2023/10/12 03:54:32;;;;;;;9.87;5.07;;;;;;;;;;5096530;28;20692;-58
2023/10/12 03:57:07;;;;;;;11.77;4.50;;;;;;;;;;5095869;28;20535;-58
2023/10/12 03:59:44;;;;;;;10.97;4.03;;;;;;;;;;5095882;28;20446;-58
2023/10/12 04:02:15;;;;;;;7.73;4.20;;;;;;;;;;5095596;28;20446;-58
2023/10/12 04:04:52;;;;;;;12.50;4.53;;;;;;;;;;5095998;28;20453;-58
2023/10/12 04:07:19;;;;;;;7.13;4.87;;;;;;;;;;5095663;28;20500;-57
2023/10/12 04:09:52;;;;;;;7.10;4.40;;;;;;;;;;5095722;28;20529;-57
2023/10/12 04:12:30;;;;;;;7.20;4.10;;;;;;;;;;5095577;28;20450;-58
2023/10/12 04:14:56;;;;;;;14.87;4.83;;;;;;;;;;5095744;28;20476;-57
2023/10/12 04:17:47;;;;;;;9.07;4.90;;;;;;;;;;5095570;28;20486;-57
2023/10/12 04:20:23;;;;;;;10.27;5.37;;;;;;;;;;5095613;28;20849;-58
2023/10/12 04:23:42;;;;;;;9.60;5.10;;;;;;;;;;5094047;28;20446;-58
2023/10/12 04:26:09;;;;;;;7.63;4.47;;;;;;;;;;5095212;28;20446;-57
2023/10/12 04:28:36;;;;;;;6.03;5.13;;;;;;;;;;5095502;28;20454;-57
2023/10/12 04:31:20;;;;;;;6.77;5.30;;;;;;;;;;5095172;28;20449;-58
2023/10/12 04:34:01;;;;;;;9.90;4.87;;;;;;;;;;5095535;28;20454;-58
2023/10/12 04:36:35;;;;;;;12.87;6.10;;;;;;;;;;5095339;28;20582;-58
2023/10/12 04:39:17;;;;;;;7.70;4.67;;;;;;;;;;5095349;28;20439;-58
2023/10/12 04:41:55;;;;;;;9.40;4.90;;;;;;;;;;5095089;28;20443;-58
2023/10/12 04:44:39;;;;;;;9.23;4.60;;;;;;;;;;5095298;28;20802;-58
2023/10/12 04:47:09;;;;;;;15.33;6.40;;;;;;;;;;5095250;28;20457;-58
2023/10/12 04:49:57;;;;;;;15.70;5.37;;;;;;;;;;5095229;28;20446;-60
2023/10/12 04:52:33;;;;;;;11.73;6.13;;;;;;;;;;5095040;28;20453;-59
2023/10/12 04:55:06;;;;;;;11.70;6.27;;;;;;;;;;5095005;28;20442;-59
2023/10/12 04:57:35;;;;;;;8.80;5.40;;;;;;;;;;5094829;28;20489;-59
2023/10/12 05:00:09;;;;;;;10.10;4.87;;;;;;;;;;5094687;28;20448;-58
2023/10/12 05:08:00;;;;;;;14.63;5.40;;;;;;;;;;5094168;28;20470;-59
2023/10/12 05:10:31;;;;;;;8.97;6.53;;;;;;;;;;5094578;28;20450;-59
2023/10/12 05:13:04;;;;;;;8.90;5.20;;;;;;;;;;5094438;28;20503;-58
2023/10/12 05:15:39;;;;;;;5.53;5.00;;;;;;;;;;5094539;28;20499;-59
2023/10/12 05:18:06;;;;;;;8.70;5.90;;;;;;;;;;5094533;28;20821;-59
2023/10/12 05:20:35;;;;;;;9.70;5.20;;;;;;;;;;5094409;28;20806;-59
2023/10/12 05:23:04;;;;;;;10.70;5.63;;;;;;;;;;5094312;28;20470;-58
2023/10/12 05:25:47;;;;;;;11.17;6.20;;;;;;;;;;5094165;28;20446;-59
2023/10/12 05:28:14;;;;;;;11.40;5.73;;;;;;;;;;5094321;28;20474;-58
2023/10/12 05:30:47;;;;;;;12.67;8.10;;;;;;;;;;5094303;28;20442;-59
2023/10/12 05:33:28;;;;;;;8.53;5.40;;;;;;;;;;5093740;28;20470;-59
2023/10/12 05:35:59;;;;;;;11.60;5.03;;;;;;;;;;5093971;28;20523;-59
2023/10/12 05:38:34;;;;;;;12.13;5.37;;;;;;;;;;5094226;28;20950;-59
2023/10/12 05:41:01;;;;;;;7.20;5.13;;;;;;;;;;5094056;28;20452;-59
2023/10/12 05:43:31;;;;;;;11.07;6.30;;;;;;;;;;5093941;28;20980;-59
2023/10/12 05:46:01;;;;;;;8.17;5.40;;;;;;;;;;5093902;28;20439;-58
2023/10/12 05:48:28;;;;;;;8.07;5.27;;;;;;;;;;5094246;28;20843;-58
2023/10/12 05:50:55;;;;;;;9.67;6.20;;;;;;;;;;5093715;28;20602;-59
2023/10/12 05:53:23;;;;;;;9.63;5.20;;;;;;;;;;5093605;28;20675;-58
2023/10/12 05:55:50;;;;;;;9.47;6.30;;;;;;;;;;5093569;28;20446;-58
2023/10/12 05:58:17;;;;;;;11.13;5.83;;;;;;;;;;5093686;28;20529;-58
2023/10/12 06:00:45;;;;;;;10.90;6.50;;;;;;;;;;5093554;28;20442;-58
2023/10/12 06:03:16;;;;;;;9.00;6.50;;;;;;;;;;5093693;28;20477;-58
2023/10/12 06:05:43;;;;;;;11.40;6.03;;;;;;;;;;5093675;28;20450;-58
2023/10/12 06:08:10;;;;;;;15.17;8.07;;;;;;;;;;5093262;28;20563;-58
2023/10/12 06:10:41;;;;;;;8.90;7.03;;;;;;;;;;5093468;28;20856;-59
2023/10/12 06:13:10;;;;;;;13.47;6.67;;;;;;;;;;5093354;28;20434;-58
2023/10/12 06:15:40;;;;;;;11.63;6.40;;;;;;;;;;5093325;28;20790;-59
2023/10/12 06:18:10;;;;;;;10.70;6.90;;;;;;;;;;5093526;28;20451;-58
2023/10/12 06:20:40;;;;;;;8.73;7.03;;;;;;;;;;5093394;28;20473;-58
2023/10/12 06:23:08;;;;;;;9.47;6.87;;;;;;;;;;5093279;28;20461;-58
2023/10/12 06:25:38;;;;;;;9.60;7.40;;;;;;;;;;5093272;28;20504;-58
2023/10/12 06:28:14;;;;;;;10.30;7.00;;;;;;;;;;5093176;28;20451;-58
2023/10/12 06:30:41;;;;;;;13.83;7.53;;;;;;;;;;5093269;28;20438;-58
2023/10/12 06:33:12;;;;;;;12.13;8.50;;;;;;;;;;5093220;28;20953;-58
2023/10/12 06:35:39;;;;;;;13.90;7.90;;;;;;;;;;5093143;28;20470;-58
2023/10/12 06:38:23;;;;;;;11.73;7.57;;;;;;;;;;5092978;28;20501;-58
2023/10/12 06:40:57;;;;;;;18.87;8.47;;;;;;;;;;5093207;28;20446;-58
2023/10/12 06:46:15;;;;;;;13.90;8.20;;;;;;;;;;5092183;28;20541;-58
2023/10/12 06:48:44;;;;;;;10.73;8.47;;;;;;;;;;5092710;28;20806;-58
2023/10/12 06:51:13;;;;;;;14.57;9.40;;;;;;;;;;5092911;28;20453;-58
2023/10/12 06:53:41;;;;;;;13.70;9.00;;;;;;;;;;5092771;28;20438;-58
2023/10/12 06:56:24;;;;;;;15.10;8.53;;;;;;;;;;5092566;28;20488;-58
2023/10/12 07:01:38;;;;;;;9.40;8.43;;;;;;;;;;5090019;28;20447;-58
2023/10/12 07:04:12;;;;;;;11.80;7.60;;;;;;;;;;5093083;28;20508;-58
2023/10/12 07:06:39;;;;;;;11.13;8.60;;;;;;;;;;5092501;28;21023;-58
2023/10/12 07:09:07;;;;;;;12.60;8.20;;;;;;;;;;5092705;28;20545;-58
2023/10/12 07:11:34;;;;;;;16.97;8.83;;;;;;;;;;5092702;28;20874;-58
2023/10/12 07:14:05;;;;;;;10.00;8.00;;;;;;;;;;5092907;28;20445;-58
2023/10/12 07:16:36;;;;;;;14.50;8.63;;;;;;;;;;5092683;28;20466;-58
2023/10/12 07:19:05;;;;;;;9.10;7.73;;;;;;;;;;5092750;28;20870;-58
2023/10/12 07:21:31;;;;;;;11.97;8.13;;;;;;;;;;5092705;28;20470;-58
2023/10/12 07:24:01;;;;;;;12.63;8.30;;;;;;;;;;5092629;28;20881;-59
2023/10/12 07:26:30;;;;;;;10.43;8.77;;;;;;;;;;5082762;28;20442;-58
2023/10/12 07:28:57;;;;;;;10.37;8.07;;;;;;;;;;5082694;28;20455;-58
2023/10/12 07:31:38;;;;;;;9.33;7.67;;;;;;;;;;5081201;28;20435;-61
2023/10/12 07:34:13;;;;;;;8.27;7.40;;;;;;;;;;5081399;28;20454;-61
2023/10/12 07:36:52;;;;;;;7.37;6.63;;;;;;;;;;5080781;28;20466;-61
2023/10/12 07:39:22;;;;;;;8.47;7.43;;;;;;;;;;5082914;28;20518;-59
2023/10/12 07:41:56;;;;;;;10.27;8.03;;;;;;;;;;5081421;28;20514;-59
2023/10/12 07:44:23;;;;;;;6.63;6.03;;;;;;;;;;5080748;28;20436;-61
2023/10/12 07:46:56;;;;;;;7.70;6.87;;;;;;;;;;5082349;28;20529;-61
2023/10/12 07:49:29;;;;;;;9.50;6.70;;;;;;;;;;5082997;28;20430;-61
2023/10/12 07:52:05;;;;;;;10.60;7.07;;;;;;;;;;5082065;28;20915;-61
2023/10/12 07:54:46;;;;;;;7.67;6.93;;;;;;;;;;5087473;28;20434;-61
2023/10/12 07:57:13;;;;;;;9.10;6.60;;;;;;;;;;5083079;28;20470;-61
2023/10/12 07:59:49;;;;;;;8.80;6.60;;;;;;;;;;5095070;28;20438;-61
2023/10/12 08:02:31;;;;;;;8.13;7.23;;;;;;;;;;5095797;28;20478;-61
2023/10/12 08:05:05;;;;;;;10.17;6.80;;;;;;;;;;5089856;28;20438;-61
2023/10/12 08:07:59;;;;;;;7.60;5.80;;;;;;;;;;5095478;28;20992;-62
2023/10/12 08:10:29;;;;;;;8.10;6.00;;;;;;;;;;5092714;28;20533;-61
2023/10/12 08:12:57;;;;;;;11.13;7.23;;;;;;;;;;5095827;28;20439;-62
2023/10/12 08:15:49;;;;;;;10.57;6.60;;;;;;;;;;5088313;28;20446;-62
2023/10/12 08:18:51;;;;;;;8.37;6.30;;;;;;;;;;5085181;28;21096;-61
2023/10/12 08:21:00;;;;;;;9.10;5.57;;;;;;;;;;5095437;28;20520;-62
2023/10/12 08:23:27;;;;;;;6.60;5.53;;;;;;;;;;5095461;28;20454;-62
2023/10/12 08:25:57;;;;;;;8.87;6.77;;;;;;;;;;5095676;28;20443;-62
2023/10/12 08:28:26;;;;;;;13.50;6.53;;;;;;;;;;5095435;28;20438;-62
2023/10/12 08:31:00;;;;;;;9.83;6.27;;;;;;;;;;5095239;28;20477;-61
2023/10/12 08:36:29;;;;;;;2.50;1.60;;;;;;;;;;5095326;28;20454;-61
2023/10/12 08:38:55;;;;;;;2.70;1.30;;;;;;;;;;5092147;28;20444;-61
2023/10/12 08:41:36;;;;;;;2.47;1.30;;;;;;;;;;5076905;28;20470;-61
2023/10/12 08:44:04;;;;;;;2.03;1.17;;;;;;;;;;5074985;28;20449;-61
2023/10/12 08:46:56;;;;;;;2.47;1.50;;;;;;;;;;5074930;28;20822;-61
2023/10/12 08:49:43;;;;;;;2.07;1.50;;;;;;;;;;5074783;28;20451;-62
2023/10/12 08:52:18;;;;;;;1.23;1.13;;;;;;;;;;5074890;28;20455;-62
2023/10/12 08:54:47;;;;;;;1.70;1.43;;;;;;;;;;5074850;28;20463;-61
2023/10/12 08:57:18;;;;;;;5.13;1.80;;;;;;;;;;5074580;28;20479;-61
2023/10/12 08:59:51;;;;;;;3.67;1.47;;;;;;;;;;5074632;28;20448;-61
2023/10/12 09:02:20;;;;;;;2.00;1.30;;;;;;;;;;5074485;28;20447;-61
2023/10/12 09:04:50;;;;;;;3.00;1.20;;;;;;;;;;5074616;28;20457;-62
2023/10/12 09:07:19;;;;;;;4.87;2.27;;;;;;;;;;5074359;28;20471;-61
2023/10/12 09:09:55;;;;;;;5.40;1.50;;;;;;;;;;5073664;28;20451;-61
2023/10/12 09:12:23;;;;;;;2.57;1.60;;;;;;;;;;5076588;28;20451;-62
2023/10/12 09:14:55;;;;;;;3.73;1.50;;;;;;;;;;5088667;28;20466;-61
2023/10/12 09:17:30;;;;;;;4.13;1.10;;;;;;;;;;5094592;28;20501;-61
2023/10/12 09:20:26;;;;;;;1.73;1.03;;;;;;;;;;5094480;28;20453;-61
2023/10/12 09:23:03;;;;;;;2.07;0.80;;;;;;;;;;5074917;28;20497;-62
2023/10/12 09:25:59;;;;;;;4.27;1.27;;;;;;;;;;5073965;28;20500;-62
2023/10/12 09:28:25;;;;;;;3.40;1.07;;;;;;;;;;5073851;28;20953;-61
2023/10/12 09:30:53;;;;;;;1.13;1.03;;;;;;;;;;5074018;28;20946;-61
2023/10/12 09:33:45;;;;;;;3.83;0.90;;;;;;;;;;5073788;28;20915;-61
2023/10/12 09:36:13;;;;;;;2.10;1.30;;;;;;;;;;5074006;28;20477;-62
2023/10/12 09:38:40;;;;;;;5.50;1.73;;;;;;;;;;5073837;28;20562;-61
2023/10/12 09:41:09;;;;;;;4.57;1.43;;;;;;;;;;5073711;28;20964;-61
2023/10/12 09:43:39;;;;;;;3.87;1.40;;;;;;;;;;5073663;28;20517;-61
2023/10/12 09:46:09;;;;;;;4.77;2.27;;;;;;;;;;5073685;28;20450;-61
2023/10/12 09:48:39;;;;;;;4.20;1.60;;;;;;;;;;5073731;28;20439;-62
2023/10/12 09:51:15;;;;;;;7.30;1.83;;;;;;;;;;5073674;28;20439;-62
2023/10/12 09:53:53;;;;;;;4.83;1.10;;;;;;;;;;5073615;28;20443;-61
2023/10/12 09:56:24;;;;;;;2.87;1.60;;;;;;;;;;5073371;28;20450;-62
2023/10/12 09:58:52;;;;;;;3.87;1.37;;;;;;;;;;5073445;28;20483;-62
2023/10/12 10:01:29;;;;;;;3.50;1.33;;;;;;;;;;5073494;28;20530;-61
2023/10/12 10:04:27;;;;;;;2.90;1.40;;;;;;;;;;5083410;28;20438;-61
2023/10/12 10:06:45;;;;;;;2.70;1.30;;;;;;;;;;5089970;28;20439;-62
2023/10/12 10:09:36;;;;;;;4.60;1.40;;;;;;;;;;5091224;28;20527;-61
2023/10/12 10:12:05;;;;;;;2.93;1.43;;;;;;;;;;5093569;28;20449;-62
2023/10/12 10:14:34;;;;;;;2.20;1.20;;;;;;;;;;5093477;28;20447;-62
2023/10/12 10:17:01;;;;;;;2.63;1.33;;;;;;;;;;5093215;28;20806;-62
2023/10/12 10:19:30;;;;;;;3.57;1.87;;;;;;;;;;5093442;28;20470;-61
2023/10/12 10:22:05;;;;;;;6.23;1.97;;;;;;;;;;5090189;28;20508;-62
2023/10/12 10:24:36;;;;;;;3.57;1.80;;;;;;;;;;5093393;28;20442;-62
2023/10/12 10:27:11;;;;;;;6.43;2.20;;;;;;;;;;5087047;28;20445;-62
2023/10/12 10:29:42;;;;;;;3.43;1.77;;;;;;;;;;5093208;28;20933;-62
2023/10/12 10:32:14;;;;;;;2.80;1.63;;;;;;;;;;5093251;28;20805;-62
2023/10/12 10:34:42;;;;;;;5.80;1.73;;;;;;;;;;5093299;28;20446;-62
2023/10/12 10:37:11;;;;;;;4.43;1.53;;;;;;;;;;5089562;28;20443;-61
2023/10/12 10:39:43;;;;;;;8.23;1.40;;;;;;;;;;5076254;28;20526;-62
2023/10/12 10:42:10;;;;;;;5.67;1.50;;;;;;;;;;5081662;28;20798;-62
2023/10/12 10:44:41;;;;;;;7.10;1.93;;;;;;;;;;5090139;28;20439;-62
2023/10/12 10:47:10;;;;;;;7.67;1.47;;;;;;;;;;5082481;28;20443;-62
2023/10/12 10:49:37;;;;;;;3.97;1.60;;;;;;;;;;5090155;28;20448;-62
2023/10/12 10:52:14;;;;;;;5.63;2.13;;;;;;;;;;5092971;28;20474;-62
2023/10/12 10:54:56;;;;;;;6.10;1.77;;;;;;;;;;5092926;28;20442;-62
2023/10/12 10:57:31;;;;;;;5.93;2.13;;;;;;;;;;5083984;28;20965;-62
2023/10/12 10:59:57;;;;;;;4.77;1.63;;;;;;;;;;5092955;28;20489;-62
2023/10/12 11:02:24;;;;;;;6.47;2.00;;;;;;;;;;5092719;28;20443;-62
2023/10/12 11:04:55;;;;;;;11.60;2.20;;;;;;;;;;5092804;28;20443;-62
2023/10/12 11:07:22;;;;;;;3.07;1.40;;;;;;;;;;5092744;28;20485;-62
2023/10/12 11:10:19;;;;;;;4.43;1.80;;;;;;;;;;5092939;28;20502;-62
2023/10/12 11:12:45;;;;;;;6.30;1.90;;;;;;;;;;5092819;28;20442;-62
2023/10/12 11:15:19;;;;;;;4.27;1.70;;;;;;;;;;5083742;28;20513;-61
2023/10/12 11:17:56;;;;;;;7.80;1.90;;;;;;;;;;5082444;28;20474;-62
2023/10/12 11:20:36;;;;;;;6.93;1.43;;;;;;;;;;5079260;28;20518;-62
2023/10/12 11:23:07;;;;;;;3.83;1.73;;;;;;;;;;5072481;28;20443;-62
2023/10/12 11:25:39;;;;;;;4.73;2.00;;;;;;;;;;5072630;28;20554;-62
2023/10/12 11:28:18;;;;;;;6.87;1.70;;;;;;;;;;5072593;28;20449;-62
2023/10/12 11:30:45;;;;;;;7.10;1.30;;;;;;;;;;5072556;28;20857;-61
2023/10/12 11:33:12;;;;;;;6.90;1.80;;;;;;;;;;5075588;28;20534;-62
2023/10/12 11:35:40;;;;;;;5.70;2.10;;;;;;;;;;5076320;28;20534;-62
2023/10/12 11:38:15;;;;;;;5.90;1.80;;;;;;;;;;5075985;28;20486;-62
2023/10/12 11:40:43;;;;;;;5.13;1.87;;;;;;;;;;5076272;28;20447;-62
2023/10/12 11:43:10;;;;;;;8.48;2.20;;;;;;;;;;5075234;28;20450;-61
2023/10/12 11:45:37;;;;;;;6.10;2.00;;;;;;;;;;5076036;28;20193;-61
2023/10/12 11:48:28;;;;;;;10.07;1.67;;;;;;;;;;5076707;28;20447;-62
2023/10/12 11:50:55;;;;;;;7.80;1.57;;;;;;;;;;5071595;28;20440;-61
2023/10/12 11:53:24;;;;;;;4.80;1.90;;;;;;;;;;5084660;28;20435;-62
2023/10/12 11:56:02;;;;;;;3.80;1.63;;;;;;;;;;5085918;28;20435;-62
2023/10/12 11:58:28;;;;;;;3.13;1.90;;;;;;;;;;5075717;28;20504;-62
2023/10/12 12:01:00;;;;;;;7.37;2.10;;;;;;;;;;5075624;28;20530;-61
2023/10/12 12:03:27;;;;;;;6.50;1.67;;;;;;;;;;5075529;28;20451;-62
2023/10/12 12:05:54;;;;;;;4.13;1.53;;;;;;;;;;5075691;28;20790;-62
2023/10/12 12:08:24;;;;;;;7.63;2.80;;;;;;;;;;5075214;28;20498;-62
2023/10/12 12:11:03;;;;;;;6.03;2.10;;;;;;;;;;5075624;28;20443;-61
2023/10/12 12:13:35;;;;;;;6.43;1.50;;;;;;;;;;5075475;28;20803;-62
2023/10/12 12:16:02;;;;;;;6.97;2.40;;;;;;;;;;5075391;28;20902;-61
2023/10/12 12:18:30;;;;;;;9.50;2.33;;;;;;;;;;5075431;28;20536;-61
2023/10/12 12:21:03;;;;;;;7.10;2.20;;;;;;;;;;5095007;28;20443;-61
2023/10/12 12:23:34;;;;;;;11.57;2.07;;;;;;;;;;5095610;28;20446;-62
2023/10/12 12:26:07;;;;;;;6.60;1.73;;;;;;;;;;5095474;28;20446;-62
2023/10/12 12:28:43;;;;;;;6.63;1.70;;;;;;;;;;5095293;28;20453;-61
2023/10/12 12:31:13;;;;;;;5.53;1.40;;;;;;;;;;5095423;28;20840;-61
2023/10/12 12:33:43;;;;;;;5.70;2.10;;;;;;;;;;5095371;28;21018;-62
2023/10/12 12:36:12;;;;;;;6.00;1.80;;;;;;;;;;5095311;28;20504;-62
2023/10/12 12:38:51;;;;;;;6.00;1.67;;;;;;;;;;5095022;28;20478;-62
2023/10/12 12:41:22;;;;;;;7.47;2.03;;;;;;;;;;5095306;28;20438;-62
2023/10/12 12:43:49;;;;;;;5.20;1.70;;;;;;;;;;5094124;28;20529;-62
2023/10/12 12:46:16;;;;;;;7.47;2.00;;;;;;;;;;5095042;28;20948;-61
2023/10/12 12:48:45;;;;;;;5.77;1.97;;;;;;;;;;5095065;28;20538;-62
2023/10/12 12:51:14;;;;;;;5.20;1.73;;;;;;;;;;5094840;28;20442;-62
2023/10/12 12:53:42;;;;;;;4.70;2.10;;;;;;;;;;5095102;28;20529;-61
2023/10/12 12:56:14;;;;;;;10.57;1.90;;;;;;;;;;5094834;28;20441;-62
2023/10/12 12:58:46;;;;;;;7.00;1.80;;;;;;;;;;5094686;28;20478;-62
2023/10/12 13:01:13;;;;;;;10.50;2.50;;;;;;;;;;5079361;28;20438;-61
2023/10/12 13:03:40;;;;;;;6.63;1.97;;;;;;;;;;5083963;28;20854;-62
2023/10/12 13:06:07;;;;;;;4.10;1.83;;;;;;;;;;5082781;28;22149;-62
2023/10/12 13:08:34;;;;;;;3.77;1.40;;;;;;;;;;5073534;28;20562;-62
2023/10/12 13:11:00;;;;;;;4.27;1.50;;;;;;;;;;5075670;28;20439;-61
2023/10/12 13:13:27;;;;;;;5.67;1.83;;;;;;;;;;5082834;28;20471;-62
2023/10/12 13:15:59;;;;;;;4.03;1.40;;;;;;;;;;5083949;28;20500;-62
2023/10/12 13:18:29;;;;;;;8.60;2.10;;;;;;;;;;5093087;28;20469;-61
2023/10/12 13:20:57;;;;;;;5.70;3.00;;;;;;;;;;5094519;28;20442;-62
2023/10/12 13:23:24;;;;;;;10.70;1.80;;;;;;;;;;5094544;28;20644;-61
2023/10/12 13:25:51;;;;;;;4.27;1.50;;;;;;;;;;5094387;28;20474;-62
2023/10/12 13:28:18;;;;;;;4.30;1.83;;;;;;;;;;5094343;28;20541;-61
2023/10/12 13:30:45;;;;;;;5.83;2.23;;;;;;;;;;5094230;28;20538;-61
2023/10/12 13:33:13;;;;;;;6.80;2.47;;;;;;;;;;5094493;28;20508;-62
2023/10/12 13:35:44;;;;;;;7.50;2.10;;;;;;;;;;5094310;28;20481;-62
2023/10/12 13:38:12;;;;;;;5.50;2.20;;;;;;;;;;5094456;28;20561;-62
2023/10/12 13:40:39;;;;;;;8.70;1.87;;;;;;;;;;5094066;28;20450;-62
2023/10/12 13:43:18;;;;;;;6.77;1.37;;;;;;;;;;5093958;28;20438;-62
2023/10/12 13:45:47;;;;;;;7.10;2.33;;;;;;;;;;5094077;28;20805;-61
2023/10/12 13:48:17;;;;;;;6.10;1.90;;;;;;;;;;5092965;28;20449;-62
2023/10/12 13:50:46;;;;;;;10.40;2.07;;;;;;;;;;5093917;28;20868;-62
2023/10/12 13:53:15;;;;;;;5.83;1.80;;;;;;;;;;5093554;28;20434;-62
2023/10/12 13:55:42;;;;;;;8.80;2.33;;;;;;;;;;5093207;28;20453;-62
2023/10/12 13:58:10;;;;;;;7.50;2.53;;;;;;;;;;5093476;28;20997;-62
2023/10/12 14:00:37;;;;;;;7.03;1.60;;;;;;;;;;5093682;28;20446;-62
2023/10/12 14:03:11;;;;;;;6.13;1.83;;;;;;;;;;5093596;28;20481;-62
2023/10/12 14:05:40;;;;;;;12.07;2.53;;;;;;;;;;5093727;28;20447;-61
2023/10/12 14:08:08;;;;;;;5.60;1.50;;;;;;;;;;5093230;28;20470;-62
2023/10/12 14:10:39;;;;;;;5.70;1.80;;;;;;;;;;5093739;28;20451;-62
2023/10/12 14:13:07;;;;;;;4.93;1.90;;;;;;;;;;5093510;28;20446;-62
2023/10/12 14:15:35;;;;;;;4.17;1.50;;;;;;;;;;5093418;28;20445;-62
2023/10/12 14:18:02;;;;;;;5.40;1.60;;;;;;;;;;5093381;28;20856;-62
2023/10/12 14:20:32;;;;;;;4.97;1.50;;;;;;;;;;5093222;28;20930;-62
2023/10/12 14:23:06;;;;;;;6.00;2.47;;;;;;;;;;5093231;28;20442;-62
2023/10/12 14:25:35;;;;;;;8.63;2.07;;;;;;;;;;5093487;28;20446;-62
2023/10/12 14:28:03;;;;;;;4.87;1.83;;;;;;;;;;5093294;28;20439;-62
2023/10/12 14:30:30;;;;;;;5.23;1.97;;;;;;;;;;5093258;28;20438;-62
2023/10/12 14:32:57;;;;;;;3.47;1.90;;;;;;;;;;5093263;28;20444;-62
2023/10/12 14:35:28;;;;;;;7.87;2.50;;;;;;;;;;5093066;28;21093;-62
2023/10/12 14:37:56;;;;;;;5.63;2.03;;;;;;;;;;5093370;28;20844;-62
2023/10/12 14:40:29;;;;;;;8.37;2.13;;;;;;;;;;5093124;28;20478;-62
2023/10/12 14:42:57;;;;;;;8.10;2.00;;;;;;;;;;5093014;28;20492;-62
2023/10/12 14:45:25;;;;;;;3.43;2.13;;;;;;;;;;5093118;28;20474;-62
2023/10/12 14:47:52;;;;;;;5.23;1.70;;;;;;;;;;5092820;28;20443;-62
2023/10/12 14:50:20;;;;;;;5.93;1.83;;;;;;;;;;5093048;28;20467;-61
2023/10/12 14:52:52;;;;;;;3.30;2.10;;;;;;;;;;5093021;28;20442;-62
2023/10/12 14:55:20;;;;;;;8.80;2.83;;;;;;;;;;5093034;28;20508;-61
2023/10/12 14:57:50;;;;;;;4.60;1.97;;;;;;;;;;5092902;28;20443;-62
2023/10/12 15:00:24;;;;;;;5.03;2.17;;;;;;;;;;5093242;28;20803;-62
2023/10/12 15:02:51;;;;;;;4.40;1.60;;;;;;;;;;5092679;28;20450;-62
2023/10/12 15:05:18;;;;;;;5.57;2.23;;;;;;;;;;5092763;28;20474;-62
2023/10/12 15:07:48;;;;;;;16.90;2.83;;;;;;;;;;5095193;28;20462;-62
2023/10/12 15:10:17;;;;;;;6.63;3.70;;;;;;;;;;5096779;28;20511;-62
2023/10/12 15:12:44;;;;;;;6.63;1.93;;;;;;;;;;5096853;28;20464;-62
2023/10/12 15:15:16;;;;;;;4.47;2.00;;;;;;;;;;5096788;28;20447;-62
2023/10/12 15:17:43;;;;;;;6.77;1.80;;;;;;;;;;5096754;28;20487;-62
2023/10/12 15:20:15;;;;;;;5.60;1.67;;;;;;;;;;5096780;28;20489;-62
2023/10/12 15:22:42;;;;;;;7.60;2.20;;;;;;;;;;5096875;28;20933;-62
2023/10/12 15:25:09;;;;;;;5.43;1.67;;;;;;;;;;5096668;28;20468;-62
2023/10/12 15:27:37;;;;;;;6.23;2.10;;;;;;;;;;5096521;28;20956;-62